Aeroporto :
LOGIN :

Iscrizione | Disclaimer

   EN    FR    IT 

 










Sommario :    VFR   VFR Marginale   IFR   IFR Intensivo   IFR Molto Intensivo
Visibilità : 
Base nubi : 
>= 8 km
>= 3000ft
5 / 8 km
1000 / 3000 ft
1500m / 5 km
500 / 1000 ft
800 / 1500m
200 / 500 ft
< 800m
< 200 ft
Simboli :   Temporali  Nebbia  Neve Forte  Precipitazioni Forti  Vento > 20 kt
SIGMETs :   Varie  Temporali  Ghiacco  Turbolenza  Onda orograficha  Ceneri Vulcaniche







- Altitudine del aeroporto : 1708 ft
- Codice IATA : SJJ


LQSA - Sarajevo

ULTIMO METAR :
  • 161300Z VRB02KT CAVOK 08/M02 Q1030 NOSIG

METARs OBSOLETI :
  • 161230Z 31003KT 270V360 CAVOK 07/M02 Q1031 NOSIG
  • 161200Z VRB02KT CAVOK 06/M02 Q1031 NOSIG
  • 161130Z VRB02KT CAVOK 06/M02 Q1031 NOSIG
  • 161100Z VRB02KT CAVOK 05/M02 Q1032 NOSIG
  • 161030Z VRB02KT 8000 NSC 04/M01 Q1032 NOSIG

TAF TAF LQSA
Valido dal 16 a 12 ore il 17 a 12 ore UTC


161100Z 1612/1712 VRB02KT CAVOK TX08/1613Z TNM04/1705Z
BECMG 1618/1621 3000 BR
PROB40 1701/1708 0600 FZFG BKN002
Nessun NOTAM noto per questo aeroporto.



MetMap, La meteo Aeronautica in un colpo d'occhio ! - Copyright ORBIFLY Dicembre 2007 - Disclaimer

ORBIFLY MET'MAP TEAM :

Programmazione e sviluppo : Alexandra Zaïnal
Concezione e sviluppo : Baudouin d'Aumeries
Co-Programmazione e sviluppo : Marc-Olivier Méhu
Supporto tecnico e logistico : Manuel Goepfert
Aiuto per la traduzione : Arnaldo La Scala

Contatto : metmap@orbifly.com




FONTI E CREDITI :

   NOAA